< < Back
Terminal Aerodrome Forecast


Current Version              Previous Versions:   1  2  3  4  5  6  7  8  9  

Terminal Aerodrome Forecast

606
FTUS42 KGSP 251300 AAA
TAFAVL
TAF AMD
KAVL 251313Z 2513/2612 34004KT P6SM SCT009 BKN025
      TEMPO 2513/2514 BKN008 BKN020
     FM251500 33006KT P6SM BKN035
     FM252000 19005KT P6SM BKN045
     FM260900 00000KT 5SM BR SCT070=



Latest METAR

237
SAUS70 KWBC 251700 RRB
MTRAVL
METAR KAVL 251654Z 17007KT 10SM BKN033 BKN044 26/17 A3010 RMK AO2 SLP166
T02560172


USA.gov is the U.S. government's official web portal to all federal, state and local government web resources and services.